sensor_id;sensor_type;location;lat;lon;timestamp;P1;durP1;ratioP1;P2;durP2;ratioP2
52354;SDS011;38286;51.156;17.038;2023-02-19T00:04:02;14.07;;;6.65;;
52354;SDS011;38286;51.156;17.038;2023-02-19T00:06:33;12.98;;;6.63;;
52354;SDS011;38286;51.156;17.038;2023-02-19T00:08:59;11.50;;;6.13;;
52354;SDS011;38286;51.156;17.038;2023-02-19T00:11:26;10.32;;;5.82;;
52354;SDS011;38286;51.156;17.038;2023-02-19T00:13:55;11.32;;;6.18;;
52354;SDS011;38286;51.156;17.038;2023-02-19T00:16:23;8.90;;;5.25;;
52354;SDS011;38286;51.156;17.038;2023-02-19T00:18:50;8.30;;;4.40;;
52354;SDS011;38286;51.156;17.038;2023-02-19T00:21:16;8.57;;;4.80;;
52354;SDS011;38286;51.156;17.038;2023-02-19T00:23:42;8.95;;;4.60;;
52354;SDS011;38286;51.156;17.038;2023-02-19T00:26:09;7.72;;;4.55;;
52354;SDS011;38286;51.156;17.038;2023-02-19T00:28:36;9.05;;;4.68;;
52354;SDS011;38286;51.156;17.038;2023-02-19T00:31:21;8.43;;;4.43;;
52354;SDS011;38286;51.156;17.038;2023-02-19T00:33:50;6.53;;;3.97;;
52354;SDS011;38286;51.156;17.038;2023-02-19T00:36:17;6.30;;;3.80;;
52354;SDS011;38286;51.156;17.038;2023-02-19T00:38:43;6.47;;;3.72;;
52354;SDS011;38286;51.156;17.038;2023-02-19T00:41:09;4.88;;;3.50;;
52354;SDS011;38286;51.156;17.038;2023-02-19T00:46:31;6.67;;;3.70;;
52354;SDS011;38286;51.156;17.038;2023-02-19T00:48:58;5.80;;;3.03;;
52354;SDS011;38286;51.156;17.038;2023-02-19T00:51:26;7.07;;;3.63;;
52354;SDS011;38286;51.156;17.038;2023-02-19T00:53:53;6.15;;;3.58;;
52354;SDS011;38286;51.156;17.038;2023-02-19T00:56:18;7.00;;;3.90;;
52354;SDS011;38286;51.156;17.038;2023-02-19T00:58:45;7.63;;;3.65;;
52354;SDS011;38286;51.156;17.038;2023-02-19T01:01:11;9.02;;;4.18;;
52354;SDS011;38286;51.156;17.038;2023-02-19T01:03:37;6.35;;;3.75;;
52354;SDS011;38286;51.156;17.038;2023-02-19T01:06:04;7.88;;;3.58;;
52354;SDS011;38286;51.156;17.038;2023-02-19T01:08:31;6.72;;;3.97;;
52354;SDS011;38286;51.156;17.038;2023-02-19T01:10:57;7.03;;;3.83;;
52354;SDS011;38286;51.156;17.038;2023-02-19T01:13:23;7.78;;;3.40;;
52354;SDS011;38286;51.156;17.038;2023-02-19T01:15:48;7.45;;;4.20;;
52354;SDS011;38286;51.156;17.038;2023-02-19T01:18:14;7.13;;;4.10;;
52354;SDS011;38286;51.156;17.038;2023-02-19T01:20:40;8.23;;;4.20;;
52354;SDS011;38286;51.156;17.038;2023-02-19T01:23:07;6.65;;;4.05;;
52354;SDS011;38286;51.156;17.038;2023-02-19T01:25:37;6.00;;;3.78;;
52354;SDS011;38286;51.156;17.038;2023-02-19T01:28:04;6.43;;;3.67;;
52354;SDS011;38286;51.156;17.038;2023-02-19T01:30:30;6.22;;;3.67;;
52354;SDS011;38286;51.156;17.038;2023-02-19T01:32:55;6.28;;;3.55;;
52354;SDS011;38286;51.156;17.038;2023-02-19T01:35:21;6.70;;;3.40;;
52354;SDS011;38286;51.156;17.038;2023-02-19T01:37:47;6.03;;;3.33;;
52354;SDS011;38286;51.156;17.038;2023-02-19T01:40:12;5.55;;;3.10;;
52354;SDS011;38286;51.156;17.038;2023-02-19T01:42:41;5.90;;;3.20;;
52354;SDS011;38286;51.156;17.038;2023-02-19T01:47:56;5.05;;;2.45;;
52354;SDS011;38286;51.156;17.038;2023-02-19T01:50:35;4.32;;;2.60;;
52354;SDS011;38286;51.156;17.038;2023-02-19T01:53:04;4.28;;;2.60;;
52354;SDS011;38286;51.156;17.038;2023-02-19T01:55:31;5.60;;;2.38;;
52354;SDS011;38286;51.156;17.038;2023-02-19T01:57:58;4.05;;;2.45;;
52354;SDS011;38286;51.156;17.038;2023-02-19T02:00:24;4.05;;;2.50;;
52354;SDS011;38286;51.156;17.038;2023-02-19T02:02:50;5.40;;;2.53;;
52354;SDS011;38286;51.156;17.038;2023-02-19T02:05:22;5.10;;;2.70;;
52354;SDS011;38286;51.156;17.038;2023-02-19T02:07:53;4.20;;;2.42;;
52354;SDS011;38286;51.156;17.038;2023-02-19T02:10:37;4.65;;;2.80;;
52354;SDS011;38286;51.156;17.038;2023-02-19T02:13:03;5.95;;;3.25;;
52354;SDS011;38286;51.156;17.038;2023-02-19T02:15:33;6.82;;;3.38;;
52354;SDS011;38286;51.156;17.038;2023-02-19T02:20:38;4.88;;;3.20;;
52354;SDS011;38286;51.156;17.038;2023-02-19T02:26:07;5.00;;;3.00;;
52354;SDS011;38286;51.156;17.038;2023-02-19T02:29:04;6.60;;;4.10;;
52354;SDS011;38286;51.156;17.038;2023-02-19T02:31:44;8.98;;;3.88;;
52354;SDS011;38286;51.156;17.038;2023-02-19T02:34:18;7.22;;;4.15;;
52354;SDS011;38286;51.156;17.038;2023-02-19T02:36:48;8.80;;;4.25;;
52354;SDS011;38286;51.156;17.038;2023-02-19T02:39:18;8.23;;;4.07;;
52354;SDS011;38286;51.156;17.038;2023-02-19T02:41:48;7.40;;;4.50;;
52354;SDS011;38286;51.156;17.038;2023-02-19T02:44:38;8.77;;;4.25;;
52354;SDS011;38286;51.156;17.038;2023-02-19T02:47:05;8.80;;;4.50;;
52354;SDS011;38286;51.156;17.038;2023-02-19T02:49:52;8.30;;;4.22;;
52354;SDS011;38286;51.156;17.038;2023-02-19T02:52:29;8.95;;;4.40;;
52354;SDS011;38286;51.156;17.038;2023-02-19T02:55:15;9.27;;;4.30;;
52354;SDS011;38286;51.156;17.038;2023-02-19T02:57:40;9.80;;;4.78;;
52354;SDS011;38286;51.156;17.038;2023-02-19T03:00:06;8.43;;;4.55;;
52354;SDS011;38286;51.156;17.038;2023-02-19T03:02:32;7.72;;;4.50;;
52354;SDS011;38286;51.156;17.038;2023-02-19T03:05:07;7.97;;;4.63;;
52354;SDS011;38286;51.156;17.038;2023-02-19T03:07:56;7.63;;;4.45;;
52354;SDS011;38286;51.156;17.038;2023-02-19T03:13:15;7.03;;;4.32;;
52354;SDS011;38286;51.156;17.038;2023-02-19T03:16:21;8.10;;;4.28;;
52354;SDS011;38286;51.156;17.038;2023-02-19T03:19:10;7.85;;;3.90;;
52354;SDS011;38286;51.156;17.038;2023-02-19T03:21:52;7.28;;;3.95;;
52354;SDS011;38286;51.156;17.038;2023-02-19T03:24:21;5.88;;;4.00;;
52354;SDS011;38286;51.156;17.038;2023-02-19T03:27:09;6.10;;;3.70;;
52354;SDS011;38286;51.156;17.038;2023-02-19T03:29:37;5.20;;;3.38;;
52354;SDS011;38286;51.156;17.038;2023-02-19T03:32:12;5.53;;;3.83;;
52354;SDS011;38286;51.156;17.038;2023-02-19T03:34:47;5.57;;;3.65;;
52354;SDS011;38286;51.156;17.038;2023-02-19T03:37:27;6.13;;;3.72;;
52354;SDS011;38286;51.156;17.038;2023-02-19T03:39:54;7.07;;;4.03;;
52354;SDS011;38286;51.156;17.038;2023-02-19T03:42:28;8.15;;;4.05;;
52354;SDS011;38286;51.156;17.038;2023-02-19T03:45:10;8.40;;;4.10;;
52354;SDS011;38286;51.156;17.038;2023-02-19T03:47:48;6.25;;;4.18;;
52354;SDS011;38286;51.156;17.038;2023-02-19T03:50:21;6.32;;;4.10;;
52354;SDS011;38286;51.156;17.038;2023-02-19T03:52:55;7.00;;;4.22;;
52354;SDS011;38286;51.156;17.038;2023-02-19T04:00:29;8.65;;;4.68;;
52354;SDS011;38286;51.156;17.038;2023-02-19T04:02:57;7.53;;;4.97;;
52354;SDS011;38286;51.156;17.038;2023-02-19T04:05:31;10.32;;;5.68;;
52354;SDS011;38286;51.156;17.038;2023-02-19T04:07:59;9.32;;;5.53;;
52354;SDS011;38286;51.156;17.038;2023-02-19T04:10:28;11.25;;;5.72;;
52354;SDS011;38286;51.156;17.038;2023-02-19T04:12:56;11.20;;;5.65;;
52354;SDS011;38286;51.156;17.038;2023-02-19T04:15:26;11.38;;;6.75;;
52354;SDS011;38286;51.156;17.038;2023-02-19T04:17:56;11.85;;;7.40;;
52354;SDS011;38286;51.156;17.038;2023-02-19T04:20:24;14.95;;;7.32;;
52354;SDS011;38286;51.156;17.038;2023-02-19T04:22:52;11.75;;;7.28;;
52354;SDS011;38286;51.156;17.038;2023-02-19T04:25:18;15.25;;;8.30;;
52354;SDS011;38286;51.156;17.038;2023-02-19T04:27:44;14.38;;;7.82;;
52354;SDS011;38286;51.156;17.038;2023-02-19T04:30:10;15.57;;;7.95;;
52354;SDS011;38286;51.156;17.038;2023-02-19T04:32:38;15.30;;;7.30;;
52354;SDS011;38286;51.156;17.038;2023-02-19T04:35:03;15.27;;;8.45;;
52354;SDS011;38286;51.156;17.038;2023-02-19T04:37:29;15.05;;;7.82;;
52354;SDS011;38286;51.156;17.038;2023-02-19T04:39:55;14.68;;;7.88;;
52354;SDS011;38286;51.156;17.038;2023-02-19T04:42:21;14.68;;;8.32;;
52354;SDS011;38286;51.156;17.038;2023-02-19T04:44:46;14.35;;;7.72;;
52354;SDS011;38286;51.156;17.038;2023-02-19T04:47:12;12.57;;;7.07;;
52354;SDS011;38286;51.156;17.038;2023-02-19T04:49:37;11.90;;;6.53;;
52354;SDS011;38286;51.156;17.038;2023-02-19T04:52:03;11.32;;;6.10;;
52354;SDS011;38286;51.156;17.038;2023-02-19T04:54:29;11.25;;;6.57;;
52354;SDS011;38286;51.156;17.038;2023-02-19T04:56:54;11.30;;;6.10;;
52354;SDS011;38286;51.156;17.038;2023-02-19T04:59:21;9.23;;;5.10;;
52354;SDS011;38286;51.156;17.038;2023-02-19T05:01:47;9.90;;;5.03;;
52354;SDS011;38286;51.156;17.038;2023-02-19T05:04:12;7.90;;;5.15;;
52354;SDS011;38286;51.156;17.038;2023-02-19T05:06:38;7.18;;;4.70;;
52354;SDS011;38286;51.156;17.038;2023-02-19T05:09:04;7.85;;;5.13;;
52354;SDS011;38286;51.156;17.038;2023-02-19T05:11:29;10.05;;;5.03;;
52354;SDS011;38286;51.156;17.038;2023-02-19T05:13:55;8.98;;;4.85;;
52354;SDS011;38286;51.156;17.038;2023-02-19T05:16:21;7.68;;;4.95;;
52354;SDS011;38286;51.156;17.038;2023-02-19T05:18:46;7.65;;;4.85;;
52354;SDS011;38286;51.156;17.038;2023-02-19T05:21:12;7.35;;;4.65;;
52354;SDS011;38286;51.156;17.038;2023-02-19T05:23:38;7.82;;;4.72;;
52354;SDS011;38286;51.156;17.038;2023-02-19T05:26:10;8.95;;;4.70;;
52354;SDS011;38286;51.156;17.038;2023-02-19T05:28:43;10.18;;;5.30;;
52354;SDS011;38286;51.156;17.038;2023-02-19T05:31:10;8.68;;;4.90;;
52354;SDS011;38286;51.156;17.038;2023-02-19T05:33:36;7.93;;;4.78;;
52354;SDS011;38286;51.156;17.038;2023-02-19T05:36:06;9.52;;;4.88;;
52354;SDS011;38286;51.156;17.038;2023-02-19T05:38:34;8.68;;;5.00;;
52354;SDS011;38286;51.156;17.038;2023-02-19T05:43:58;12.32;;;5.63;;
52354;SDS011;38286;51.156;17.038;2023-02-19T05:46:24;9.52;;;5.40;;
52354;SDS011;38286;51.156;17.038;2023-02-19T05:48:51;8.02;;;5.35;;
52354;SDS011;38286;51.156;17.038;2023-02-19T05:51:19;7.70;;;4.75;;
52354;SDS011;38286;51.156;17.038;2023-02-19T05:53:46;9.98;;;5.18;;
52354;SDS011;38286;51.156;17.038;2023-02-19T05:58:49;9.38;;;4.93;;
52354;SDS011;38286;51.156;17.038;2023-02-19T06:01:15;8.25;;;5.13;;
52354;SDS011;38286;51.156;17.038;2023-02-19T06:03:42;6.40;;;4.45;;
52354;SDS011;38286;51.156;17.038;2023-02-19T06:06:08;7.10;;;4.38;;
52354;SDS011;38286;51.156;17.038;2023-02-19T06:08:37;7.43;;;4.28;;
52354;SDS011;38286;51.156;17.038;2023-02-19T06:11:03;8.88;;;4.57;;
52354;SDS011;38286;51.156;17.038;2023-02-19T06:13:28;7.65;;;4.43;;
52354;SDS011;38286;51.156;17.038;2023-02-19T06:15:54;8.35;;;4.30;;
52354;SDS011;38286;51.156;17.038;2023-02-19T06:18:20;7.65;;;4.60;;
52354;SDS011;38286;51.156;17.038;2023-02-19T06:20:46;6.03;;;4.07;;
52354;SDS011;38286;51.156;17.038;2023-02-19T06:23:11;9.25;;;4.82;;
52354;SDS011;38286;51.156;17.038;2023-02-19T06:25:37;7.85;;;4.88;;
52354;SDS011;38286;51.156;17.038;2023-02-19T06:28:03;10.38;;;5.25;;
52354;SDS011;38286;51.156;17.038;2023-02-19T06:30:29;11.63;;;5.40;;
52354;SDS011;38286;51.156;17.038;2023-02-19T06:32:54;10.95;;;5.43;;
52354;SDS011;38286;51.156;17.038;2023-02-19T06:35:20;9.48;;;5.28;;
52354;SDS011;38286;51.156;17.038;2023-02-19T06:37:46;6.28;;;4.07;;
52354;SDS011;38286;51.156;17.038;2023-02-19T06:40:12;6.15;;;3.97;;
52354;SDS011;38286;51.156;17.038;2023-02-19T06:42:38;7.35;;;4.80;;
52354;SDS011;38286;51.156;17.038;2023-02-19T06:45:04;8.85;;;4.30;;
52354;SDS011;38286;51.156;17.038;2023-02-19T06:47:30;5.40;;;3.63;;
52354;SDS011;38286;51.156;17.038;2023-02-19T06:49:57;6.60;;;3.85;;
52354;SDS011;38286;51.156;17.038;2023-02-19T06:52:22;5.55;;;3.75;;
52354;SDS011;38286;51.156;17.038;2023-02-19T06:54:48;5.15;;;3.40;;
52354;SDS011;38286;51.156;17.038;2023-02-19T06:57:14;6.22;;;3.35;;
52354;SDS011;38286;51.156;17.038;2023-02-19T06:59:39;4.90;;;3.30;;
52354;SDS011;38286;51.156;17.038;2023-02-19T07:02:05;4.90;;;3.15;;
52354;SDS011;38286;51.156;17.038;2023-02-19T07:04:31;6.15;;;3.10;;
52354;SDS011;38286;51.156;17.038;2023-02-19T07:06:56;5.10;;;3.40;;
52354;SDS011;38286;51.156;17.038;2023-02-19T07:09:22;6.05;;;3.40;;
52354;SDS011;38286;51.156;17.038;2023-02-19T07:11:49;5.07;;;3.30;;
52354;SDS011;38286;51.156;17.038;2023-02-19T07:14:15;6.57;;;2.97;;
52354;SDS011;38286;51.156;17.038;2023-02-19T07:16:41;6.60;;;3.33;;
52354;SDS011;38286;51.156;17.038;2023-02-19T07:19:08;6.82;;;3.30;;
52354;SDS011;38286;51.156;17.038;2023-02-19T07:21:34;5.85;;;3.50;;
52354;SDS011;38286;51.156;17.038;2023-02-19T07:24:02;6.47;;;3.70;;
52354;SDS011;38286;51.156;17.038;2023-02-19T07:26:29;6.22;;;3.85;;
52354;SDS011;38286;51.156;17.038;2023-02-19T07:28:55;6.95;;;3.55;;
52354;SDS011;38286;51.156;17.038;2023-02-19T07:31:22;5.53;;;3.90;;
52354;SDS011;38286;51.156;17.038;2023-02-19T07:33:48;5.70;;;4.10;;
52354;SDS011;38286;51.156;17.038;2023-02-19T07:36:14;7.20;;;4.28;;
52354;SDS011;38286;51.156;17.038;2023-02-19T07:38:42;9.88;;;4.65;;
52354;SDS011;38286;51.156;17.038;2023-02-19T07:41:07;6.88;;;3.83;;
52354;SDS011;38286;51.156;17.038;2023-02-19T07:43:34;5.35;;;3.58;;
52354;SDS011;38286;51.156;17.038;2023-02-19T07:46:09;4.50;;;2.80;;
52354;SDS011;38286;51.156;17.038;2023-02-19T07:48:36;3.42;;;2.15;;
52354;SDS011;38286;51.156;17.038;2023-02-19T07:51:02;2.38;;;2.15;;
52354;SDS011;38286;51.156;17.038;2023-02-19T07:53:29;7.38;;;4.03;;
52354;SDS011;38286;51.156;17.038;2023-02-19T07:56:01;10.32;;;4.57;;
52354;SDS011;38286;51.156;17.038;2023-02-19T07:58:28;11.05;;;5.25;;
52354;SDS011;38286;51.156;17.038;2023-02-19T08:00:54;14.05;;;5.22;;
52354;SDS011;38286;51.156;17.038;2023-02-19T08:03:20;7.45;;;3.95;;
52354;SDS011;38286;51.156;17.038;2023-02-19T08:05:46;9.55;;;4.05;;
52354;SDS011;38286;51.156;17.038;2023-02-19T08:08:14;9.75;;;4.03;;
52354;SDS011;38286;51.156;17.038;2023-02-19T08:10:40;4.80;;;2.05;;
52354;SDS011;38286;51.156;17.038;2023-02-19T08:13:26;3.88;;;1.90;;
52354;SDS011;38286;51.156;17.038;2023-02-19T08:15:55;5.35;;;2.40;;
52354;SDS011;38286;51.156;17.038;2023-02-19T08:18:42;9.18;;;2.13;;
52354;SDS011;38286;51.156;17.038;2023-02-19T08:21:08;4.07;;;1.90;;
52354;SDS011;38286;51.156;17.038;2023-02-19T08:23:35;5.70;;;2.20;;
52354;SDS011;38286;51.156;17.038;2023-02-19T08:26:01;2.95;;;1.90;;
52354;SDS011;38286;51.156;17.038;2023-02-19T08:28:27;4.75;;;2.47;;
52354;SDS011;38286;51.156;17.038;2023-02-19T08:30:56;6.38;;;1.60;;
52354;SDS011;38286;51.156;17.038;2023-02-19T08:33:27;6.90;;;1.70;;
52354;SDS011;38286;51.156;17.038;2023-02-19T08:35:52;2.70;;;1.30;;
52354;SDS011;38286;51.156;17.038;2023-02-19T08:38:18;3.65;;;1.65;;
52354;SDS011;38286;51.156;17.038;2023-02-19T08:40:44;3.90;;;1.67;;
52354;SDS011;38286;51.156;17.038;2023-02-19T08:43:11;4.10;;;1.52;;
52354;SDS011;38286;51.156;17.038;2023-02-19T08:45:39;5.50;;;1.70;;
52354;SDS011;38286;51.156;17.038;2023-02-19T08:48:06;4.22;;;2.22;;
52354;SDS011;38286;51.156;17.038;2023-02-19T08:50:33;5.57;;;2.08;;
52354;SDS011;38286;51.156;17.038;2023-02-19T08:52:59;5.43;;;1.95;;
52354;SDS011;38286;51.156;17.038;2023-02-19T08:55:26;3.80;;;1.70;;
52354;SDS011;38286;51.156;17.038;2023-02-19T08:57:51;3.40;;;1.60;;
52354;SDS011;38286;51.156;17.038;2023-02-19T09:00:17;4.05;;;1.70;;
52354;SDS011;38286;51.156;17.038;2023-02-19T09:02:43;5.00;;;2.28;;
52354;SDS011;38286;51.156;17.038;2023-02-19T09:05:10;7.07;;;2.38;;
52354;SDS011;38286;51.156;17.038;2023-02-19T09:07:36;5.10;;;1.80;;
52354;SDS011;38286;51.156;17.038;2023-02-19T09:10:02;2.83;;;2.00;;
52354;SDS011;38286;51.156;17.038;2023-02-19T09:12:28;3.50;;;1.63;;
52354;SDS011;38286;51.156;17.038;2023-02-19T09:14:53;4.18;;;1.60;;
52354;SDS011;38286;51.156;17.038;2023-02-19T09:17:19;5.10;;;1.98;;
52354;SDS011;38286;51.156;17.038;2023-02-19T09:19:45;4.82;;;2.00;;
52354;SDS011;38286;51.156;17.038;2023-02-19T09:22:11;3.97;;;1.63;;
52354;SDS011;38286;51.156;17.038;2023-02-19T09:24:36;4.38;;;1.60;;
52354;SDS011;38286;51.156;17.038;2023-02-19T09:27:02;9.55;;;2.40;;
52354;SDS011;38286;51.156;17.038;2023-02-19T09:29:28;5.20;;;2.10;;
52354;SDS011;38286;51.156;17.038;2023-02-19T09:31:57;7.38;;;2.00;;
52354;SDS011;38286;51.156;17.038;2023-02-19T09:34:24;5.20;;;2.38;;
52354;SDS011;38286;51.156;17.038;2023-02-19T09:36:50;7.65;;;1.77;;
52354;SDS011;38286;51.156;17.038;2023-02-19T09:39:15;3.72;;;1.77;;
52354;SDS011;38286;51.156;17.038;2023-02-19T09:41:43;4.85;;;1.80;;
52354;SDS011;38286;51.156;17.038;2023-02-19T09:44:11;3.83;;;1.60;;
52354;SDS011;38286;51.156;17.038;2023-02-19T09:46:49;2.85;;;1.42;;
52354;SDS011;38286;51.156;17.038;2023-02-19T09:49:21;2.28;;;1.15;;
52354;SDS011;38286;51.156;17.038;2023-02-19T09:51:56;2.53;;;1.08;;
52354;SDS011;38286;51.156;17.038;2023-02-19T09:54:25;4.72;;;1.23;;
52354;SDS011;38286;51.156;17.038;2023-02-19T09:56:53;3.72;;;1.48;;
52354;SDS011;38286;51.156;17.038;2023-02-19T09:59:23;3.10;;;1.50;;
52354;SDS011;38286;51.156;17.038;2023-02-19T10:04:29;3.80;;;1.38;;
52354;SDS011;38286;51.156;17.038;2023-02-19T10:06:57;2.10;;;1.00;;
52354;SDS011;38286;51.156;17.038;2023-02-19T10:09:25;2.13;;;0.93;;
52354;SDS011;38286;51.156;17.038;2023-02-19T10:11:53;4.25;;;0.82;;
52354;SDS011;38286;51.156;17.038;2023-02-19T10:14:39;2.40;;;0.80;;
52354;SDS011;38286;51.156;17.038;2023-02-19T10:17:08;1.95;;;0.95;;
52354;SDS011;38286;51.156;17.038;2023-02-19T10:19:41;2.75;;;1.00;;
52354;SDS011;38286;51.156;17.038;2023-02-19T10:22:08;2.35;;;0.95;;
52354;SDS011;38286;51.156;17.038;2023-02-19T10:24:35;4.55;;;1.13;;
52354;SDS011;38286;51.156;17.038;2023-02-19T10:27:01;2.42;;;1.05;;
52354;SDS011;38286;51.156;17.038;2023-02-19T10:29:27;6.78;;;1.08;;
52354;SDS011;38286;51.156;17.038;2023-02-19T10:32:12;7.70;;;1.30;;
52354;SDS011;38286;51.156;17.038;2023-02-19T10:34:47;2.90;;;1.20;;
52354;SDS011;38286;51.156;17.038;2023-02-19T10:37:32;4.53;;;1.20;;
52354;SDS011;38286;51.156;17.038;2023-02-19T10:39:59;2.92;;;1.25;;
52354;SDS011;38286;51.156;17.038;2023-02-19T10:42:25;5.35;;;1.45;;
52354;SDS011;38286;51.156;17.038;2023-02-19T10:44:54;8.88;;;4.05;;
52354;SDS011;38286;51.156;17.038;2023-02-19T10:47:24;5.63;;;1.25;;
52354;SDS011;38286;51.156;17.038;2023-02-19T10:49:50;5.50;;;1.20;;
52354;SDS011;38286;51.156;17.038;2023-02-19T10:52:23;10.63;;;4.32;;
52354;SDS011;38286;51.156;17.038;2023-02-19T10:54:52;5.13;;;1.98;;
52354;SDS011;38286;51.156;17.038;2023-02-19T10:57:24;4.75;;;3.85;;
52354;SDS011;38286;51.156;17.038;2023-02-19T10:59:58;5.68;;;1.92;;
52354;SDS011;38286;51.156;17.038;2023-02-19T11:02:43;3.80;;;1.45;;
52354;SDS011;38286;51.156;17.038;2023-02-19T11:07:49;5.13;;;1.88;;
52354;SDS011;38286;51.156;17.038;2023-02-19T11:12:58;9.48;;;3.97;;
52354;SDS011;38286;51.156;17.038;2023-02-19T11:15:26;23.58;;;13.70;;
52354;SDS011;38286;51.156;17.038;2023-02-19T11:18:06;40.30;;;21.00;;
52354;SDS011;38286;51.156;17.038;2023-02-19T11:20:45;13.52;;;7.10;;
52354;SDS011;38286;51.156;17.038;2023-02-19T11:23:15;9.63;;;6.50;;
52354;SDS011;38286;51.156;17.038;2023-02-19T11:25:44;10.70;;;4.10;;
52354;SDS011;38286;51.156;17.038;2023-02-19T11:31:42;7.85;;;3.65;;
52354;SDS011;38286;51.156;17.038;2023-02-19T11:36:32;2.47;;;1.20;;
52354;SDS011;38286;51.156;17.038;2023-02-19T11:50:02;4.37;;;1.57;;
52354;SDS011;38286;51.156;17.038;2023-02-19T11:52:46;3.22;;;1.55;;
52354;SDS011;38286;51.156;17.038;2023-02-19T11:55:41;4.95;;;2.22;;
52354;SDS011;38286;51.156;17.038;2023-02-19T12:01:03;2.72;;;1.90;;
52354;SDS011;38286;51.156;17.038;2023-02-19T12:09:24;2.00;;;1.00;;
52354;SDS011;38286;51.156;17.038;2023-02-19T12:12:24;3.88;;;1.20;;
52354;SDS011;38286;51.156;17.038;2023-02-19T12:14:58;3.20;;;0.98;;
52354;SDS011;38286;51.156;17.038;2023-02-19T12:17:42;4.18;;;1.10;;
52354;SDS011;38286;51.156;17.038;2023-02-19T12:23:20;3.38;;;1.65;;
52354;SDS011;38286;51.156;17.038;2023-02-19T12:34:27;6.13;;;1.33;;
52354;SDS011;38286;51.156;17.038;2023-02-19T12:45:15;2.55;;;1.02;;
52354;SDS011;38286;51.156;17.038;2023-02-19T12:47:45;3.20;;;1.30;;
52354;SDS011;38286;51.156;17.038;2023-02-19T12:50:22;6.43;;;1.30;;
52354;SDS011;38286;51.156;17.038;2023-02-19T12:52:51;7.43;;;1.20;;
52354;SDS011;38286;51.156;17.038;2023-02-19T12:55:31;3.47;;;1.10;;
52354;SDS011;38286;51.156;17.038;2023-02-19T12:58:00;2.88;;;1.27;;
52354;SDS011;38286;51.156;17.038;2023-02-19T13:00:41;5.07;;;1.40;;
52354;SDS011;38286;51.156;17.038;2023-02-19T13:03:10;1.80;;;0.85;;
52354;SDS011;38286;51.156;17.038;2023-02-19T13:05:57;3.95;;;1.40;;
52354;SDS011;38286;51.156;17.038;2023-02-19T13:08:34;4.53;;;1.17;;
52354;SDS011;38286;51.156;17.038;2023-02-19T13:11:18;2.85;;;1.02;;
52354;SDS011;38286;51.156;17.038;2023-02-19T13:13:57;2.17;;;0.98;;
52354;SDS011;38286;51.156;17.038;2023-02-19T13:16:24;1.85;;;1.27;;
52354;SDS011;38286;51.156;17.038;2023-02-19T13:18:58;2.30;;;1.20;;
52354;SDS011;38286;51.156;17.038;2023-02-19T13:21:27;4.30;;;1.73;;
52354;SDS011;38286;51.156;17.038;2023-02-19T13:24:20;0.77;;;0.75;;
52354;SDS011;38286;51.156;17.038;2023-02-19T13:35:20;5.43;;;1.33;;
52354;SDS011;38286;51.156;17.038;2023-02-19T13:38:07;4.85;;;1.35;;
52354;SDS011;38286;51.156;17.038;2023-02-19T13:40:40;4.15;;;1.30;;
52354;SDS011;38286;51.156;17.038;2023-02-19T13:45:54;3.55;;;0.95;;
52354;SDS011;38286;51.156;17.038;2023-02-19T13:48:32;2.78;;;1.40;;
52354;SDS011;38286;51.156;17.038;2023-02-19T14:04:24;2.78;;;1.00;;
52354;SDS011;38286;51.156;17.038;2023-02-19T14:19:58;7.70;;;1.02;;
52354;SDS011;38286;51.156;17.038;2023-02-19T14:25:20;2.90;;;1.10;;
52354;SDS011;38286;51.156;17.038;2023-02-19T14:27:49;2.10;;;1.10;;
52354;SDS011;38286;51.156;17.038;2023-02-19T14:30:16;3.38;;;1.13;;
52354;SDS011;38286;51.156;17.038;2023-02-19T14:32:41;2.65;;;2.30;;
52354;SDS011;38286;51.156;17.038;2023-02-19T14:35:20;3.63;;;2.25;;
52354;SDS011;38286;51.156;17.038;2023-02-19T14:37:47;3.85;;;1.40;;
52354;SDS011;38286;51.156;17.038;2023-02-19T14:40:29;4.38;;;1.10;;
52354;SDS011;38286;51.156;17.038;2023-02-19T14:42:58;2.10;;;1.10;;
52354;SDS011;38286;51.156;17.038;2023-02-19T14:45:25;3.97;;;0.98;;
52354;SDS011;38286;51.156;17.038;2023-02-19T14:47:51;4.07;;;1.08;;
52354;SDS011;38286;51.156;17.038;2023-02-19T14:50:28;3.85;;;1.02;;
52354;SDS011;38286;51.156;17.038;2023-02-19T14:53:04;2.35;;;1.17;;
52354;SDS011;38286;51.156;17.038;2023-02-19T14:55:32;3.30;;;1.10;;
52354;SDS011;38286;51.156;17.038;2023-02-19T14:58:00;3.33;;;0.90;;
52354;SDS011;38286;51.156;17.038;2023-02-19T15:00:32;4.47;;;1.30;;
52354;SDS011;38286;51.156;17.038;2023-02-19T15:02:59;3.45;;;1.30;;
52354;SDS011;38286;51.156;17.038;2023-02-19T15:05:29;6.22;;;1.10;;
52354;SDS011;38286;51.156;17.038;2023-02-19T15:07:59;5.63;;;1.17;;
52354;SDS011;38286;51.156;17.038;2023-02-19T15:10:28;2.90;;;0.80;;
52354;SDS011;38286;51.156;17.038;2023-02-19T15:12:59;6.53;;;1.00;;
52354;SDS011;38286;51.156;17.038;2023-02-19T15:15:28;3.47;;;0.98;;
52354;SDS011;38286;51.156;17.038;2023-02-19T15:17:56;4.35;;;1.00;;
52354;SDS011;38286;51.156;17.038;2023-02-19T15:20:25;4.40;;;1.13;;
52354;SDS011;38286;51.156;17.038;2023-02-19T15:22:53;4.72;;;1.27;;
52354;SDS011;38286;51.156;17.038;2023-02-19T15:25:20;3.10;;;1.13;;
52354;SDS011;38286;51.156;17.038;2023-02-19T15:27:47;4.05;;;1.20;;
52354;SDS011;38286;51.156;17.038;2023-02-19T15:30:23;2.70;;;1.40;;
52354;SDS011;38286;51.156;17.038;2023-02-19T15:32:52;4.35;;;1.35;;
52354;SDS011;38286;51.156;17.038;2023-02-19T15:35:19;1.75;;;1.05;;
52354;SDS011;38286;51.156;17.038;2023-02-19T15:37:46;4.78;;;1.42;;
52354;SDS011;38286;51.156;17.038;2023-02-19T15:40:13;5.25;;;1.65;;
52354;SDS011;38286;51.156;17.038;2023-02-19T15:42:39;4.38;;;1.38;;
52354;SDS011;38286;51.156;17.038;2023-02-19T15:45:21;7.18;;;1.20;;
52354;SDS011;38286;51.156;17.038;2023-02-19T16:00:44;4.60;;;1.40;;
52354;SDS011;38286;51.156;17.038;2023-02-19T16:03:16;4.90;;;1.60;;
52354;SDS011;38286;51.156;17.038;2023-02-19T16:05:44;5.90;;;1.70;;
52354;SDS011;38286;51.156;17.038;2023-02-19T16:10:35;6.25;;;1.60;;
52354;SDS011;38286;51.156;17.038;2023-02-19T16:13:02;5.22;;;1.70;;
52354;SDS011;38286;51.156;17.038;2023-02-19T16:15:30;3.83;;;1.50;;
52354;SDS011;38286;51.156;17.038;2023-02-19T16:17:56;6.50;;;2.15;;
52354;SDS011;38286;51.156;17.038;2023-02-19T16:20:23;4.10;;;2.00;;
52354;SDS011;38286;51.156;17.038;2023-02-19T16:22:55;3.47;;;1.27;;
52354;SDS011;38286;51.156;17.038;2023-02-19T16:27:58;3.17;;;1.25;;
52354;SDS011;38286;51.156;17.038;2023-02-19T16:30:29;6.18;;;1.40;;
52354;SDS011;38286;51.156;17.038;2023-02-19T16:41:34;5.30;;;1.67;;
52354;SDS011;38286;51.156;17.038;2023-02-19T16:46:46;7.50;;;1.65;;
52354;SDS011;38286;51.156;17.038;2023-02-19T16:49:12;7.03;;;2.38;;
52354;SDS011;38286;51.156;17.038;2023-02-19T16:51:38;4.78;;;1.88;;
52354;SDS011;38286;51.156;17.038;2023-02-19T16:54:04;4.82;;;1.77;;
52354;SDS011;38286;51.156;17.038;2023-02-19T16:56:30;3.83;;;1.80;;
52354;SDS011;38286;51.156;17.038;2023-02-19T16:58:56;7.63;;;2.20;;
52354;SDS011;38286;51.156;17.038;2023-02-19T17:01:22;7.10;;;2.42;;
52354;SDS011;38286;51.156;17.038;2023-02-19T17:03:48;7.28;;;3.08;;
52354;SDS011;38286;51.156;17.038;2023-02-19T17:06:14;8.13;;;2.50;;
52354;SDS011;38286;51.156;17.038;2023-02-19T17:08:40;7.68;;;2.10;;
52354;SDS011;38286;51.156;17.038;2023-02-19T17:11:10;5.50;;;1.80;;
52354;SDS011;38286;51.156;17.038;2023-02-19T17:13:37;5.82;;;2.40;;
52354;SDS011;38286;51.156;17.038;2023-02-19T17:16:04;5.22;;;2.30;;
52354;SDS011;38286;51.156;17.038;2023-02-19T17:18:29;4.57;;;2.08;;